createdAt,value
2023-04-29T00:00:15.895Z,16.49
2023-04-29T00:02:44.169Z,16.47
2023-04-29T00:05:13.605Z,16.13
2023-04-29T00:07:42.983Z,15.97
2023-04-29T00:10:12.444Z,15.98
2023-04-29T00:12:41.291Z,15.79
2023-04-29T00:15:09.240Z,15.97
2023-04-29T00:17:37.260Z,16.15
2023-04-29T00:20:06.319Z,16.37
2023-04-29T00:22:34.523Z,16.60
2023-04-29T00:25:02.044Z,16.57
2023-04-29T00:27:30.018Z,16.63
2023-04-29T00:30:00.675Z,16.71
2023-04-29T00:32:28.937Z,16.77
2023-04-29T00:34:57.418Z,16.81
2023-04-29T00:37:25.399Z,16.68
2023-04-29T00:40:08.790Z,16.74
2023-04-29T00:42:36.582Z,16.51
2023-04-29T00:45:06.949Z,16.63
2023-04-29T00:47:36.185Z,16.78
2023-04-29T00:50:06.168Z,16.70
2023-04-29T00:52:35.473Z,16.57
2023-04-29T00:55:05.648Z,16.44
2023-04-29T00:57:34.658Z,16.42
2023-04-29T01:00:03.970Z,16.43
2023-04-29T01:02:32.186Z,16.22
2023-04-29T01:04:59.668Z,15.88
2023-04-29T01:07:52.692Z,15.90
2023-04-29T01:10:28.310Z,16.10
2023-04-29T01:13:02.011Z,16.18
2023-04-29T01:16:01.613Z,16.34
2023-04-29T01:18:40.624Z,16.37
2023-04-29T01:21:08.169Z,16.45
2023-04-29T01:23:36.246Z,16.36
2023-04-29T01:26:05.965Z,16.36
2023-04-29T01:29:10.371Z,16.29
2023-04-29T01:31:43.756Z,16.12
2023-04-29T01:34:22.213Z,16.04
2023-04-29T01:37:05.076Z,15.97
2023-04-29T01:40:12.437Z,16.00
2023-04-29T01:42:54.730Z,16.17
2023-04-29T01:45:23.567Z,15.98
2023-04-29T01:47:56.060Z,15.85
2023-04-29T01:50:23.790Z,16.17
2023-04-29T01:52:51.455Z,16.04
2023-04-29T01:55:19.709Z,16.12
2023-04-29T01:57:58.802Z,16.07
2023-04-29T02:01:04.862Z,16.00
2023-04-29T02:03:35.136Z,16.00
2023-04-29T02:06:04.489Z,16.26
2023-04-29T02:08:32.547Z,16.42
2023-04-29T02:11:01.360Z,16.18
2023-04-29T02:13:40.719Z,16.04
2023-04-29T02:16:13.390Z,16.12
2023-04-29T02:18:48.894Z,16.20
2023-04-29T02:21:16.902Z,16.31
2023-04-29T02:23:44.435Z,16.39
2023-04-29T02:26:12.187Z,16.41
2023-04-29T02:28:39.880Z,16.42
2023-04-29T02:31:07.488Z,16.38
2023-04-29T02:33:35.698Z,16.36
2023-04-29T02:36:03.958Z,16.32
2023-04-29T02:38:31.576Z,16.28
2023-04-29T02:40:59.152Z,16.29
2023-04-29T02:43:27.008Z,16.29
2023-04-29T02:45:55.056Z,16.35
2023-04-29T02:48:22.538Z,16.42
2023-04-29T02:51:08.488Z,16.42
2023-04-29T02:53:54.279Z,16.47
2023-04-29T02:56:23.527Z,16.43
2023-04-29T02:58:51.693Z,15.93
2023-04-29T03:01:19.784Z,15.92
2023-04-29T03:03:47.590Z,15.77
2023-04-29T03:06:16.034Z,15.82
2023-04-29T03:08:43.934Z,15.83
2023-04-29T03:11:11.504Z,16.06
2023-04-29T03:13:39.396Z,16.21
2023-04-29T03:16:08.614Z,16.40
2023-04-29T03:18:36.208Z,16.59
2023-04-29T03:21:04.864Z,16.69
2023-04-29T03:23:33.552Z,16.75
2023-04-29T03:26:03.205Z,16.73
2023-04-29T03:28:31.039Z,16.86
2023-04-29T03:30:59.513Z,16.45
2023-04-29T03:33:27.125Z,16.52
2023-04-29T03:35:54.886Z,16.57
2023-04-29T03:38:41.423Z,16.34
2023-04-29T03:41:09.361Z,16.20
2023-04-29T03:43:37.667Z,16.07
2023-04-29T03:46:05.304Z,16.36
2023-04-29T03:48:33.070Z,16.54
2023-04-29T03:51:02.052Z,16.53
2023-04-29T03:53:30.409Z,16.61
2023-04-29T03:55:58.324Z,16.69
2023-04-29T03:58:26.992Z,16.80
2023-04-29T04:00:55.324Z,16.74
2023-04-29T04:03:28.354Z,16.68
2023-04-29T04:05:58.072Z,16.58
2023-04-29T04:08:25.866Z,16.63
2023-04-29T04:11:03.194Z,16.81
2023-04-29T04:13:52.144Z,16.81
2023-04-29T04:16:20.446Z,16.65
2023-04-29T04:18:48.638Z,16.33
2023-04-29T04:21:16.450Z,16.33
2023-04-29T04:23:49.081Z,16.02
2023-04-29T04:26:21.550Z,15.89
2023-04-29T04:29:07.478Z,15.57
2023-04-29T04:31:44.924Z,15.52
2023-04-29T04:34:15.125Z,15.46
2023-04-29T04:36:43.103Z,15.56
2023-04-29T04:39:10.815Z,15.61
2023-04-29T04:41:39.165Z,15.57
2023-04-29T04:44:08.048Z,15.49
2023-04-29T04:46:52.471Z,15.47
2023-04-29T04:49:40.168Z,15.23
2023-04-29T04:52:08.316Z,15.19
2023-04-29T04:54:37.021Z,15.45
2023-04-29T04:57:13.240Z,15.34
2023-04-29T04:59:40.986Z,15.46
2023-04-29T05:02:08.740Z,15.13
2023-04-29T05:04:36.313Z,15.22
2023-04-29T05:07:04.958Z,15.20
2023-04-29T05:09:44.753Z,15.11
2023-04-29T05:12:13.023Z,15.26
2023-04-29T05:14:40.577Z,15.38
2023-04-29T05:17:10.124Z,15.47
2023-04-29T05:19:37.914Z,15.41
2023-04-29T05:22:06.558Z,15.21
2023-04-29T05:24:34.189Z,15.09
2023-04-29T05:27:01.887Z,15.13
2023-04-29T05:29:29.462Z,15.43
2023-04-29T05:32:00.772Z,15.45
2023-04-29T05:34:29.847Z,15.59
2023-04-29T05:36:57.965Z,15.51
2023-04-29T05:39:26.829Z,15.37
2023-04-29T05:42:05.365Z,15.78
2023-04-29T05:44:45.974Z,15.83
2023-04-29T05:47:13.638Z,15.67
2023-04-29T05:49:41.965Z,15.88
2023-04-29T05:52:10.172Z,16.19
2023-04-29T05:54:43.140Z,16.52
2023-04-29T05:57:10.900Z,16.42
2023-04-29T05:59:38.393Z,15.80
2023-04-29T06:02:06.932Z,15.81
2023-04-29T06:04:36.563Z,16.00
2023-04-29T06:07:30.789Z,16.64
2023-04-29T06:10:07.371Z,16.16
2023-04-29T06:12:35.704Z,15.81
2023-04-29T06:15:03.497Z,15.82
2023-04-29T06:17:32.265Z,16.08
2023-04-29T06:20:00.648Z,16.35
2023-04-29T06:22:28.603Z,16.82
2023-04-29T06:24:56.944Z,16.70
2023-04-29T06:27:38.941Z,16.49
2023-04-29T06:30:07.882Z,16.91
2023-04-29T06:32:35.984Z,16.82
2023-04-29T06:35:04.108Z,17.09
2023-04-29T06:37:51.026Z,16.88
2023-04-29T06:40:46.132Z,17.06
2023-04-29T06:43:49.482Z,16.98
2023-04-29T06:46:27.917Z,17.61
2023-04-29T06:49:05.091Z,17.87
2023-04-29T06:51:33.750Z,17.77
2023-04-29T06:54:01.942Z,17.56
2023-04-29T06:56:30.262Z,17.70
2023-04-29T06:58:57.843Z,17.88
2023-04-29T07:01:25.800Z,18.16
2023-04-29T07:03:54.007Z,18.62
2023-04-29T07:06:21.679Z,18.92
2023-04-29T07:08:49.626Z,19.10
2023-04-29T07:11:17.562Z,19.25
2023-04-29T07:13:45.261Z,19.28
2023-04-29T07:16:21.696Z,19.48
2023-04-29T07:18:49.794Z,19.42
2023-04-29T07:21:17.742Z,19.51
2023-04-29T07:23:45.785Z,19.43
2023-04-29T07:26:16.892Z,19.34
2023-04-29T07:28:46.278Z,18.48
2023-04-29T07:31:14.543Z,19.29
2023-04-29T07:33:43.303Z,19.27
2023-04-29T07:36:12.168Z,18.86
2023-04-29T07:38:40.374Z,19.06
2023-04-29T07:41:08.408Z,19.46
2023-04-29T07:43:36.488Z,19.63
2023-04-29T07:46:04.171Z,20.02
2023-04-29T07:48:38.406Z,20.39
2023-04-29T07:51:06.926Z,20.38
2023-04-29T07:53:34.508Z,20.28
2023-04-29T07:56:08.912Z,20.33
2023-04-29T07:58:36.525Z,20.30
2023-04-29T08:01:08.709Z,19.39
2023-04-29T08:03:39.811Z,19.31
2023-04-29T08:06:09.789Z,18.60
2023-04-29T08:08:37.669Z,18.39
2023-04-29T08:11:06.663Z,18.75
2023-04-29T08:13:37.177Z,19.23
2023-04-29T08:16:05.315Z,19.45
2023-04-29T08:18:33.998Z,19.42
2023-04-29T08:21:01.604Z,19.57
2023-04-29T08:23:29.414Z,19.63
2023-04-29T08:25:56.930Z,19.56
2023-04-29T08:28:25.027Z,18.67
2023-04-29T08:30:52.655Z,18.44
2023-04-29T08:33:20.173Z,18.38
2023-04-29T08:35:48.603Z,19.36
2023-04-29T08:38:16.853Z,19.38
2023-04-29T08:40:49.347Z,20.26
2023-04-29T08:43:17.282Z,20.80
2023-04-29T08:45:46.682Z,20.41
2023-04-29T08:48:16.366Z,20.23
2023-04-29T08:50:45.627Z,20.58
2023-04-29T08:53:14.539Z,21.41
2023-04-29T08:55:44.071Z,21.26
2023-04-29T08:58:13.651Z,20.32
2023-04-29T09:00:43.270Z,20.40
2023-04-29T09:03:27.610Z,20.74
2023-04-29T09:05:57.006Z,21.72
2023-04-29T09:08:25.420Z,21.33
2023-04-29T09:10:53.188Z,21.59
2023-04-29T09:13:25.898Z,21.74
2023-04-29T09:15:54.658Z,22.21
2023-04-29T09:18:50.787Z,21.62
2023-04-29T09:21:27.255Z,21.95
2023-04-29T09:23:57.657Z,21.52
2023-04-29T09:26:26.364Z,21.54
2023-04-29T09:29:14.196Z,20.59
2023-04-29T09:31:42.680Z,21.30
2023-04-29T09:34:14.547Z,21.15
2023-04-29T09:36:46.998Z,22.25
2023-04-29T09:39:19.437Z,22.96
2023-04-29T09:41:52.962Z,23.13
2023-04-29T09:44:24.706Z,24.05
2023-04-29T09:47:00.025Z,24.12
2023-04-29T09:49:29.772Z,25.45
2023-04-29T09:51:59.490Z,23.73
2023-04-29T09:54:29.455Z,22.81
2023-04-29T09:57:00.009Z,22.88
2023-04-29T09:59:27.919Z,23.11
2023-04-29T10:01:57.593Z,23.98
2023-04-29T10:04:27.479Z,24.52
2023-04-29T10:06:56.560Z,24.11
2023-04-29T10:09:24.868Z,24.34
2023-04-29T10:11:53.946Z,23.14
2023-04-29T10:14:24.960Z,23.30
2023-04-29T10:17:15.045Z,24.56
2023-04-29T10:20:09.521Z,25.32
2023-04-29T10:22:49.311Z,26.48
2023-04-29T10:25:19.151Z,27.14
2023-04-29T10:27:49.049Z,27.91
2023-04-29T10:30:18.181Z,28.51
2023-04-29T10:35:20.303Z,27.38
2023-04-29T10:37:49.116Z,27.56
2023-04-29T10:40:22.482Z,27.60
2023-04-29T10:42:51.223Z,28.65
2023-04-29T10:45:20.032Z,26.65
2023-04-29T10:48:06.715Z,25.06
2023-04-29T10:50:38.290Z,26.10
2023-04-29T10:53:06.325Z,27.44
2023-04-29T10:55:38.099Z,27.03
2023-04-29T10:58:06.613Z,27.61
2023-04-29T11:00:35.175Z,28.11
2023-04-29T11:03:06.572Z,28.13
2023-04-29T11:05:35.838Z,28.07
2023-04-29T11:08:10.473Z,25.10
2023-04-29T11:10:40.767Z,26.51
2023-04-29T11:13:29.364Z,25.63
2023-04-29T11:16:11.582Z,26.07
2023-04-29T11:19:04.919Z,26.70
2023-04-29T11:21:38.656Z,27.10
2023-04-29T11:24:06.802Z,27.93
2023-04-29T11:26:36.391Z,28.37
2023-04-29T11:29:05.960Z,29.40
2023-04-29T11:31:33.813Z,29.08
2023-04-29T11:34:01.982Z,29.58
2023-04-29T11:36:32.692Z,30.22
2023-04-29T11:39:02.003Z,29.07
2023-04-29T11:41:29.920Z,29.33
2023-04-29T11:44:00.000Z,29.50
2023-04-29T11:46:31.887Z,29.57
2023-04-29T11:49:00.697Z,30.39
2023-04-29T11:51:28.953Z,30.08
2023-04-29T11:53:58.184Z,30.62
2023-04-29T11:56:26.239Z,31.97
2023-04-29T11:58:57.102Z,32.06
2023-04-29T12:01:27.049Z,31.65
2023-04-29T12:04:00.017Z,31.11
2023-04-29T12:06:30.256Z,29.45
2023-04-29T12:09:01.360Z,30.13
2023-04-29T12:11:29.511Z,30.77
2023-04-29T12:13:58.255Z,31.29
2023-04-29T12:16:29.350Z,32.31
2023-04-29T12:18:58.769Z,31.40
2023-04-29T12:21:27.591Z,31.76
2023-04-29T12:23:59.685Z,31.21
2023-04-29T12:26:33.709Z,30.24
2023-04-29T12:29:01.835Z,30.95
2023-04-29T12:31:34.872Z,28.46
2023-04-29T12:34:06.381Z,29.24
2023-04-29T12:36:37.396Z,29.96
2023-04-29T12:39:08.585Z,30.27
2023-04-29T12:41:41.206Z,29.62
2023-04-29T12:44:10.990Z,29.08
2023-04-29T12:46:41.830Z,29.15
2023-04-29T12:49:09.509Z,30.59
2023-04-29T12:51:37.643Z,32.00
2023-04-29T12:54:07.366Z,33.82
2023-04-29T12:56:35.610Z,33.02
2023-04-29T12:59:07.833Z,32.91
2023-04-29T13:01:37.632Z,32.13
2023-04-29T13:04:09.014Z,31.06
2023-04-29T13:06:41.947Z,31.75
2023-04-29T13:09:18.277Z,31.24
2023-04-29T13:11:47.315Z,31.53
2023-04-29T13:14:16.475Z,30.78
2023-04-29T13:16:44.872Z,31.32
2023-04-29T13:19:28.104Z,31.70
2023-04-29T13:22:00.256Z,30.71
2023-04-29T13:24:28.294Z,30.13
2023-04-29T13:26:56.065Z,29.31
2023-04-29T13:29:24.508Z,29.19
2023-04-29T13:31:52.757Z,30.94
2023-04-29T13:34:21.333Z,30.80
2023-04-29T13:36:49.418Z,31.55
2023-04-29T13:39:17.649Z,32.70
2023-04-29T13:41:46.424Z,33.32
2023-04-29T13:46:47.465Z,34.01
2023-04-29T13:49:42.328Z,33.79
2023-04-29T13:52:50.578Z,31.75
2023-04-29T13:55:14.826Z,30.22
2023-04-29T13:58:35.244Z,30.37
2023-04-29T14:05:31.912Z,28.64
2023-04-29T14:08:00.414Z,28.79
2023-04-29T14:10:27.961Z,29.22
2023-04-29T14:12:55.989Z,30.09
2023-04-29T14:15:24.150Z,30.10
2023-04-29T14:17:51.934Z,29.93
2023-04-29T14:20:20.122Z,30.60
2023-04-29T14:22:47.739Z,31.00
2023-04-29T14:25:16.195Z,29.25
2023-04-29T14:27:44.078Z,28.39
2023-04-29T14:30:12.041Z,27.70
2023-04-29T14:32:40.037Z,27.98
2023-04-29T14:35:08.031Z,27.50
2023-04-29T14:37:35.968Z,28.09
2023-04-29T14:40:04.558Z,28.41
2023-04-29T14:42:32.092Z,28.63
2023-04-29T14:44:59.641Z,28.49
2023-04-29T14:47:27.662Z,27.75
2023-04-29T14:49:56.503Z,27.47
2023-04-29T14:52:24.693Z,27.03
2023-04-29T14:54:52.499Z,27.08
2023-04-29T14:57:20.437Z,27.13
2023-04-29T14:59:47.958Z,27.55
2023-04-29T15:02:15.989Z,26.81
2023-04-29T15:04:46.094Z,26.53
2023-04-29T15:07:13.979Z,26.58
2023-04-29T15:09:42.026Z,26.62
2023-04-29T15:12:09.718Z,26.51
2023-04-29T15:14:37.342Z,25.61
2023-04-29T15:17:05.339Z,25.28
2023-04-29T15:19:33.132Z,25.11
2023-04-29T15:22:00.651Z,24.48
2023-04-29T15:24:28.572Z,24.85
2023-04-29T15:26:56.551Z,25.02
2023-04-29T15:29:24.082Z,24.82
2023-04-29T15:31:52.093Z,24.86
2023-04-29T15:34:19.794Z,24.37
2023-04-29T15:36:47.544Z,24.01
2023-04-29T15:39:15.826Z,24.49
2023-04-29T15:41:44.133Z,24.37
2023-04-29T15:44:12.000Z,24.08
2023-04-29T15:46:40.451Z,24.00
2023-04-29T15:49:08.120Z,24.01
2023-04-29T15:51:36.654Z,23.58
2023-04-29T15:54:05.164Z,23.61
2023-04-29T15:56:33.201Z,23.68
2023-04-29T15:59:01.148Z,23.17
2023-04-29T16:01:28.837Z,23.16
2023-04-29T16:03:57.447Z,23.45
2023-04-29T16:06:25.249Z,23.44
2023-04-29T16:08:52.772Z,23.42
2023-04-29T16:11:21.359Z,23.28
2023-04-29T16:13:48.953Z,23.24
2023-04-29T16:16:16.976Z,23.04
2023-04-29T16:18:44.764Z,23.17
2023-04-29T16:21:13.662Z,23.16
2023-04-29T16:23:41.919Z,22.97
2023-04-29T16:26:10.108Z,23.10
2023-04-29T16:28:38.180Z,22.99
2023-04-29T16:31:06.012Z,22.95
2023-04-29T16:33:33.565Z,22.70
2023-04-29T16:36:01.371Z,22.58
2023-04-29T16:38:28.939Z,22.50
2023-04-29T16:40:56.841Z,22.69
2023-04-29T16:43:24.939Z,23.08
2023-04-29T16:45:53.100Z,22.84
2023-04-29T16:48:21.170Z,22.97
2023-04-29T16:50:50.592Z,22.50
2023-04-29T16:53:18.992Z,22.66
2023-04-29T16:55:47.053Z,22.80
2023-04-29T16:58:15.131Z,22.56
2023-04-29T17:00:43.971Z,22.55
2023-04-29T17:03:11.747Z,22.91
2023-04-29T17:05:39.571Z,23.04
2023-04-29T17:08:07.764Z,22.63
2023-04-29T17:10:36.335Z,22.72
2023-04-29T17:13:04.098Z,22.70
2023-04-29T17:15:32.034Z,22.69
2023-04-29T17:17:59.705Z,22.95
2023-04-29T17:20:27.416Z,23.05
2023-04-29T17:22:54.933Z,23.08
2023-04-29T17:25:23.468Z,22.85
2023-04-29T17:27:52.085Z,23.01
2023-04-29T17:30:19.537Z,22.97
2023-04-29T17:32:49.763Z,22.65
2023-04-29T17:35:17.486Z,22.09
2023-04-29T17:37:45.560Z,22.13
2023-04-29T17:40:13.373Z,22.29
2023-04-29T17:42:40.979Z,22.39
2023-04-29T17:45:09.801Z,22.45
2023-04-29T17:47:37.429Z,22.38
2023-04-29T17:50:05.291Z,22.32
2023-04-29T17:52:33.891Z,22.31
2023-04-29T17:55:02.813Z,22.04
2023-04-29T17:57:30.810Z,21.77
2023-04-29T17:59:58.280Z,21.81
2023-04-29T18:02:26.085Z,21.80
2023-04-29T18:04:54.328Z,21.70
2023-04-29T18:07:21.913Z,21.73
2023-04-29T18:09:50.035Z,21.69
2023-04-29T18:12:17.572Z,21.55
2023-04-29T18:14:46.661Z,21.27
2023-04-29T18:17:14.521Z,21.29
2023-04-29T18:19:42.317Z,21.07
2023-04-29T18:22:10.037Z,20.93
2023-04-29T18:24:38.068Z,21.10
2023-04-29T18:27:06.006Z,21.13
2023-04-29T18:29:33.864Z,20.97
2023-04-29T18:32:02.148Z,20.93
2023-04-29T18:34:29.794Z,21.03
2023-04-29T18:36:57.463Z,20.92
2023-04-29T18:39:25.009Z,20.71
2023-04-29T18:41:52.576Z,20.40
2023-04-29T18:44:20.435Z,20.40
2023-04-29T18:46:48.029Z,20.46
2023-04-29T18:49:17.080Z,20.27
2023-04-29T18:51:46.881Z,20.33
2023-04-29T18:54:19.178Z,20.23
2023-04-29T18:56:48.887Z,20.18
2023-04-29T18:59:19.634Z,20.21
2023-04-29T19:01:48.737Z,20.20
2023-04-29T19:04:17.013Z,20.22
2023-04-29T19:06:45.201Z,20.13
2023-04-29T19:09:13.731Z,20.26
2023-04-29T19:11:41.507Z,20.26
2023-04-29T19:14:09.197Z,20.28
2023-04-29T19:16:37.351Z,20.34
2023-04-29T19:19:05.411Z,20.33
2023-04-29T19:21:34.081Z,20.25
2023-04-29T19:24:01.929Z,20.09
2023-04-29T19:26:31.154Z,19.89
2023-04-29T19:29:00.881Z,19.72
2023-04-29T19:31:29.089Z,19.81
2023-04-29T19:33:56.893Z,19.70
2023-04-29T19:36:24.633Z,19.59
2023-04-29T19:38:53.046Z,19.58
2023-04-29T19:41:21.042Z,19.44
2023-04-29T19:43:49.022Z,19.33
2023-04-29T19:46:17.037Z,19.22
2023-04-29T19:48:44.675Z,19.22
2023-04-29T19:51:12.714Z,19.20
2023-04-29T19:53:41.088Z,18.99
2023-04-29T19:56:09.723Z,18.94
2023-04-29T19:58:37.908Z,19.09
2023-04-29T20:01:06.232Z,19.17
2023-04-29T20:03:36.148Z,19.14
2023-04-29T20:06:04.284Z,18.97
2023-04-29T20:08:31.968Z,18.97
2023-04-29T20:11:00.904Z,18.95
2023-04-29T20:13:28.962Z,18.88
2023-04-29T20:15:56.842Z,18.88
2023-04-29T20:18:24.464Z,18.93
2023-04-29T20:20:52.641Z,18.88
2023-04-29T20:23:20.685Z,18.84
2023-04-29T20:25:48.838Z,18.77
2023-04-29T20:28:17.054Z,18.69
2023-04-29T20:30:45.141Z,18.55
2023-04-29T20:33:13.010Z,18.50
2023-04-29T20:35:40.752Z,18.47
2023-04-29T20:38:09.160Z,18.30
2023-04-29T20:40:36.923Z,18.32
2023-04-29T20:43:04.803Z,18.25
2023-04-29T20:45:32.834Z,18.29
2023-04-29T20:48:00.826Z,18.05
2023-04-29T20:50:28.468Z,17.93
2023-04-29T20:52:56.766Z,17.90
2023-04-29T20:55:24.395Z,18.09
2023-04-29T20:57:52.338Z,17.73
2023-04-29T21:00:20.015Z,17.86
2023-04-29T21:02:47.669Z,17.72
2023-04-29T21:05:15.726Z,17.71
2023-04-29T21:07:43.365Z,17.80
2023-04-29T21:10:12.513Z,17.77
2023-04-29T21:12:40.705Z,17.77
2023-04-29T21:15:09.200Z,17.79
2023-04-29T21:17:37.366Z,17.73
2023-04-29T21:20:06.027Z,17.74
2023-04-29T21:22:33.698Z,17.62
2023-04-29T21:25:01.230Z,17.58
2023-04-29T21:27:29.318Z,17.58
2023-04-29T21:29:57.928Z,17.40
2023-04-29T21:32:25.764Z,17.53
2023-04-29T21:34:53.413Z,17.68
2023-04-29T21:37:21.115Z,17.81
2023-04-29T21:39:48.753Z,17.67
2023-04-29T21:42:21.303Z,17.61
2023-04-29T21:44:48.897Z,17.55
2023-04-29T21:47:16.869Z,17.26
2023-04-29T21:49:44.715Z,17.27
2023-04-29T21:52:13.126Z,17.33
2023-04-29T21:54:40.703Z,17.32
2023-04-29T21:57:08.785Z,17.34
2023-04-29T21:59:36.976Z,17.40
2023-04-29T22:02:14.363Z,17.38
2023-04-29T22:04:42.672Z,17.48
2023-04-29T22:07:10.861Z,17.44
2023-04-29T22:09:38.962Z,17.33
2023-04-29T22:12:07.773Z,17.46
2023-04-29T22:14:35.496Z,17.39
2023-04-29T22:17:03.272Z,17.41
2023-04-29T22:19:31.279Z,17.39
2023-04-29T22:21:59.097Z,17.33
2023-04-29T22:24:27.053Z,17.19
2023-04-29T22:26:54.667Z,17.10
2023-04-29T22:29:22.790Z,17.17
2023-04-29T22:31:50.768Z,17.21
2023-04-29T22:34:18.865Z,17.22
2023-04-29T22:36:46.810Z,17.35
2023-04-29T22:39:14.429Z,17.16
2023-04-29T22:41:42.682Z,17.09
2023-04-29T22:44:10.383Z,16.99
2023-04-29T22:46:38.793Z,16.88
2023-04-29T22:49:06.558Z,17.06
2023-04-29T22:51:34.648Z,17.09
2023-04-29T22:54:02.784Z,16.98
2023-04-29T22:56:31.028Z,17.10
2023-04-29T22:58:59.368Z,17.13
2023-04-29T23:01:27.019Z,17.19
2023-04-29T23:03:54.852Z,17.14
2023-04-29T23:06:22.885Z,16.95
2023-04-29T23:08:51.067Z,17.01
2023-04-29T23:11:19.050Z,17.03
2023-04-29T23:13:47.052Z,17.17
2023-04-29T23:16:15.236Z,17.13
2023-04-29T23:18:42.837Z,17.16
2023-04-29T23:21:10.527Z,17.21
2023-04-29T23:23:38.158Z,17.23
2023-04-29T23:26:05.877Z,17.16
2023-04-29T23:28:33.804Z,17.09
2023-04-29T23:31:02.094Z,16.98
2023-04-29T23:33:29.930Z,16.79
2023-04-29T23:35:57.850Z,16.85
2023-04-29T23:38:25.605Z,16.89
2023-04-29T23:40:54.182Z,16.83
2023-04-29T23:43:22.043Z,16.84
2023-04-29T23:45:50.073Z,16.83
2023-04-29T23:48:18.020Z,16.90
2023-04-29T23:50:47.225Z,16.87
2023-04-29T23:53:15.908Z,16.82
2023-04-29T23:55:43.928Z,16.73
2023-04-29T23:58:11.499Z,16.57
